createdAt,value
2017-12-06T00:01:01.142Z,15.60
2017-12-06T00:03:28.766Z,15.37
2017-12-06T00:05:56.357Z,15.50
2017-12-06T00:08:23.963Z,15.70
2017-12-06T00:10:51.527Z,16.23
2017-12-06T00:13:24.610Z,15.67
2017-12-06T00:15:52.189Z,14.20
2017-12-06T00:18:19.794Z,15.67
2017-12-06T00:20:47.403Z,16.90
2017-12-06T00:23:15.055Z,16.40
2017-12-06T00:25:42.658Z,16.30
2017-12-06T00:28:10.297Z,16.57
2017-12-06T00:30:37.922Z,15.73
2017-12-06T00:33:05.553Z,16.40
2017-12-06T00:35:33.161Z,15.97
2017-12-06T00:38:00.738Z,15.93
2017-12-06T00:40:28.323Z,15.87
2017-12-06T00:42:55.909Z,15.30
2017-12-06T00:45:23.758Z,16.30
2017-12-06T00:47:51.327Z,15.20
2017-12-06T00:50:18.943Z,14.93
2017-12-06T00:52:46.608Z,15.67
2017-12-06T00:55:14.191Z,16.53
2017-12-06T00:57:41.820Z,16.10
2017-12-06T01:00:09.407Z,15.60
2017-12-06T01:02:36.981Z,16.17
2017-12-06T01:05:04.614Z,16.13
2017-12-06T01:07:32.196Z,15.73
2017-12-06T01:09:59.828Z,15.30
2017-12-06T01:12:27.435Z,16.37
2017-12-06T01:14:55.060Z,16.00
2017-12-06T01:17:22.629Z,16.10
2017-12-06T01:19:50.302Z,16.90
2017-12-06T01:22:17.880Z,17.00
2017-12-06T01:24:45.452Z,16.50
2017-12-06T01:27:13.042Z,16.03
2017-12-06T01:29:40.677Z,15.20
2017-12-06T01:32:08.268Z,16.53
2017-12-06T01:34:35.892Z,16.63
2017-12-06T01:37:03.478Z,16.67
2017-12-06T01:39:31.086Z,16.10
2017-12-06T01:41:58.658Z,15.47
2017-12-06T01:44:26.248Z,15.20
2017-12-06T01:46:53.830Z,16.23
2017-12-06T01:49:21.451Z,15.07
2017-12-06T01:51:49.042Z,15.97
2017-12-06T01:54:16.634Z,16.00
2017-12-06T01:56:44.246Z,15.80
2017-12-06T01:59:11.909Z,16.70
2017-12-06T02:01:39.577Z,15.60
2017-12-06T02:04:07.224Z,14.97
2017-12-06T02:06:34.843Z,15.90
2017-12-06T02:09:02.494Z,15.40
2017-12-06T02:11:30.102Z,16.67
2017-12-06T02:13:57.676Z,15.40
2017-12-06T02:16:25.315Z,16.33
2017-12-06T02:18:52.904Z,15.53
2017-12-06T02:21:20.528Z,16.37
2017-12-06T02:23:48.123Z,15.80
2017-12-06T02:26:15.714Z,16.17
2017-12-06T02:28:43.324Z,16.17
2017-12-06T02:31:11.070Z,14.87
2017-12-06T02:33:38.669Z,15.87
2017-12-06T02:36:06.263Z,16.30
2017-12-06T02:38:33.828Z,15.50
2017-12-06T02:41:13.350Z,15.80
2017-12-06T02:43:52.606Z,15.00
2017-12-06T02:46:20.216Z,15.03
2017-12-06T02:48:47.878Z,15.60
2017-12-06T02:51:15.536Z,17.20
2017-12-06T02:53:43.176Z,16.53
2017-12-06T02:56:10.789Z,16.90
2017-12-06T02:58:38.393Z,16.20
2017-12-06T03:01:06.009Z,15.93
2017-12-06T03:03:33.590Z,16.40
2017-12-06T03:06:01.240Z,17.00
2017-12-06T03:08:28.802Z,15.03
2017-12-06T03:10:56.382Z,15.50
2017-12-06T03:13:24.034Z,15.37
2017-12-06T03:15:51.642Z,15.80
2017-12-06T03:18:19.242Z,15.77
2017-12-06T03:20:46.818Z,14.70
2017-12-06T03:23:14.400Z,15.47
2017-12-06T03:25:41.964Z,14.40
2017-12-06T03:28:09.544Z,15.80
2017-12-06T03:30:37.111Z,16.30
2017-12-06T03:33:04.680Z,13.57
2017-12-06T03:35:32.256Z,15.00
2017-12-06T03:37:59.907Z,15.80
2017-12-06T03:40:27.464Z,15.30
2017-12-06T03:42:55.040Z,15.10
2017-12-06T03:45:22.620Z,15.90
2017-12-06T03:47:50.215Z,14.17
2017-12-06T03:50:17.792Z,14.40
2017-12-06T03:52:45.384Z,14.93
2017-12-06T03:55:12.984Z,14.60
2017-12-06T03:57:40.612Z,14.43
2017-12-06T04:00:08.211Z,15.50
2017-12-06T04:02:36.026Z,16.33
2017-12-06T04:05:03.624Z,14.87
2017-12-06T04:07:31.196Z,14.93
2017-12-06T04:09:58.927Z,14.67
2017-12-06T04:12:26.544Z,14.80
2017-12-06T04:14:54.148Z,14.87
2017-12-06T04:17:21.724Z,14.23
2017-12-06T04:19:49.307Z,13.97
2017-12-06T04:22:16.930Z,13.80
2017-12-06T04:24:44.523Z,15.10
2017-12-06T04:27:12.103Z,13.70
2017-12-06T04:29:39.687Z,14.07
2017-12-06T04:32:07.293Z,15.00
2017-12-06T04:34:34.919Z,14.80
2017-12-06T04:37:02.583Z,15.33
2017-12-06T04:39:30.293Z,14.33
2017-12-06T04:41:58.062Z,15.50
2017-12-06T04:44:25.673Z,15.40
2017-12-06T04:46:53.302Z,14.40
2017-12-06T04:49:20.941Z,14.90
2017-12-06T04:51:48.612Z,14.30
2017-12-06T04:54:16.230Z,15.40
2017-12-06T04:56:43.845Z,14.90
2017-12-06T04:59:11.559Z,14.67
2017-12-06T05:01:39.175Z,13.60
2017-12-06T05:04:06.759Z,14.37
2017-12-06T05:06:34.360Z,14.70
2017-12-06T05:09:01.952Z,13.90
2017-12-06T05:11:29.550Z,14.93
2017-12-06T05:13:57.138Z,15.07
2017-12-06T05:16:24.734Z,14.33
2017-12-06T05:18:52.310Z,13.77
2017-12-06T05:21:19.975Z,14.20
2017-12-06T05:23:47.571Z,13.70
2017-12-06T05:26:15.219Z,14.80
2017-12-06T05:28:42.831Z,14.20
2017-12-06T05:31:10.420Z,13.53
2017-12-06T05:33:38.008Z,14.93
2017-12-06T05:36:05.621Z,15.67
2017-12-06T05:38:33.260Z,13.63
2017-12-06T05:41:00.895Z,13.70
2017-12-06T05:43:28.487Z,14.33
2017-12-06T05:45:56.121Z,14.70
2017-12-06T05:48:23.693Z,15.47
2017-12-06T05:50:51.265Z,16.30
2017-12-06T05:53:18.861Z,17.50
2017-12-06T05:55:46.511Z,15.97
2017-12-06T05:58:14.079Z,15.57
2017-12-06T06:00:41.652Z,14.70
2017-12-06T06:03:09.245Z,14.50
2017-12-06T06:05:36.889Z,15.10
2017-12-06T06:08:04.479Z,13.90
2017-12-06T06:10:32.076Z,16.67
2017-12-06T06:12:59.671Z,15.93
2017-12-06T06:15:27.249Z,16.10
2017-12-06T06:17:54.874Z,16.60
2017-12-06T06:20:22.483Z,16.47
2017-12-06T06:22:50.077Z,15.83
2017-12-06T06:25:17.657Z,15.43
2017-12-06T06:27:45.224Z,17.00
2017-12-06T06:30:12.797Z,17.40
2017-12-06T06:32:40.415Z,15.00
2017-12-06T06:35:08.187Z,16.03
2017-12-06T06:37:35.845Z,15.03
2017-12-06T06:40:03.481Z,14.57
2017-12-06T06:42:31.097Z,15.60
2017-12-06T06:44:58.702Z,14.87
2017-12-06T06:47:26.311Z,16.50
2017-12-06T06:49:53.921Z,15.57
2017-12-06T06:52:21.549Z,15.97
2017-12-06T06:54:49.140Z,16.63
2017-12-06T06:57:16.733Z,15.40
2017-12-06T06:59:44.353Z,15.37
2017-12-06T07:02:11.969Z,16.43
2017-12-06T07:04:39.587Z,15.80
2017-12-06T07:07:07.215Z,15.80
2017-12-06T07:09:34.806Z,17.00
2017-12-06T07:12:02.400Z,15.57
2017-12-06T07:14:30.088Z,15.60
2017-12-06T07:16:57.687Z,14.67
2017-12-06T07:19:25.301Z,16.70
2017-12-06T07:21:52.881Z,15.57
2017-12-06T07:24:20.504Z,15.00
2017-12-06T07:26:48.075Z,14.87
2017-12-06T07:29:15.689Z,15.13
2017-12-06T07:31:43.300Z,15.20
2017-12-06T07:34:10.894Z,16.20
2017-12-06T07:36:38.474Z,13.93
2017-12-06T07:39:06.170Z,16.33
2017-12-06T07:41:33.803Z,16.17
2017-12-06T07:44:01.426Z,16.20
2017-12-06T07:46:29.064Z,15.53
2017-12-06T07:48:56.806Z,14.53
2017-12-06T07:51:24.381Z,15.53
2017-12-06T07:53:52.041Z,15.07
2017-12-06T07:56:19.740Z,16.47
2017-12-06T07:58:47.370Z,15.00
2017-12-06T08:01:14.932Z,15.10
2017-12-06T08:03:42.560Z,15.37
2017-12-06T08:06:10.150Z,15.00
2017-12-06T08:08:37.752Z,15.27
2017-12-06T08:11:05.313Z,14.83
2017-12-06T08:13:32.944Z,16.07
2017-12-06T08:16:00.954Z,15.30
2017-12-06T08:18:28.530Z,15.20
2017-12-06T08:20:56.216Z,14.17
2017-12-06T08:23:23.786Z,14.80
2017-12-06T08:25:51.392Z,15.93
2017-12-06T08:28:18.992Z,13.63
2017-12-06T08:30:46.715Z,14.33
2017-12-06T08:33:14.320Z,14.57
2017-12-06T08:35:41.907Z,14.60
2017-12-06T08:38:09.532Z,16.23
2017-12-06T08:40:37.120Z,14.50
2017-12-06T08:43:04.709Z,14.07
2017-12-06T08:45:32.351Z,14.83
2017-12-06T08:47:59.932Z,15.17
2017-12-06T08:50:27.604Z,13.97
2017-12-06T08:52:55.253Z,13.93
2017-12-06T08:55:22.822Z,13.90
2017-12-06T08:57:50.398Z,14.77
2017-12-06T09:00:18.020Z,14.63
2017-12-06T09:02:45.592Z,13.23
2017-12-06T09:05:13.229Z,13.60
2017-12-06T09:07:40.815Z,13.10
2017-12-06T09:10:08.442Z,12.60
2017-12-06T09:12:36.777Z,12.73
2017-12-06T09:15:04.443Z,12.93
2017-12-06T09:17:32.087Z,12.80
2017-12-06T09:19:59.704Z,12.50
2017-12-06T09:22:27.349Z,12.70
2017-12-06T09:24:54.940Z,12.40
2017-12-06T09:27:22.563Z,13.70
2017-12-06T09:29:50.132Z,12.57
2017-12-06T09:32:17.779Z,14.00
2017-12-06T09:34:45.401Z,12.40
2017-12-06T09:37:13.036Z,12.93
2017-12-06T09:39:40.632Z,12.77
2017-12-06T09:42:08.212Z,12.57
2017-12-06T09:44:35.841Z,12.40
2017-12-06T09:47:03.415Z,12.90
2017-12-06T09:49:31.005Z,12.10
2017-12-06T09:51:58.690Z,11.77
2017-12-06T09:54:26.284Z,12.30
2017-12-06T09:56:53.894Z,12.30
2017-12-06T09:59:21.470Z,11.83
2017-12-06T10:01:49.131Z,11.80
2017-12-06T10:04:16.814Z,11.43
2017-12-06T10:06:44.433Z,11.20
2017-12-06T10:09:12.012Z,11.87
2017-12-06T10:11:39.621Z,11.43
2017-12-06T10:14:07.212Z,11.47
2017-12-06T10:16:34.811Z,11.37
2017-12-06T10:19:02.426Z,10.47
2017-12-06T10:21:30.121Z,11.60
2017-12-06T10:23:58.005Z,10.30
2017-12-06T10:26:25.596Z,11.57
2017-12-06T10:28:53.208Z,10.97
2017-12-06T10:31:20.802Z,10.50
2017-12-06T10:33:48.406Z,11.77
2017-12-06T10:36:15.990Z,10.70
2017-12-06T10:38:43.634Z,10.73
2017-12-06T10:41:11.211Z,11.50
2017-12-06T10:43:38.821Z,11.67
2017-12-06T10:46:06.412Z,10.67
2017-12-06T10:48:34.025Z,11.50
2017-12-06T10:51:01.607Z,10.80
2017-12-06T10:53:29.232Z,8.60
2017-12-06T10:55:56.816Z,9.37
2017-12-06T10:58:24.460Z,10.00
2017-12-06T11:00:52.102Z,8.67
2017-12-06T11:03:19.716Z,9.50
2017-12-06T11:05:47.311Z,8.67
2017-12-06T11:08:14.931Z,9.50
2017-12-06T11:10:42.508Z,7.43
2017-12-06T11:13:10.596Z,8.10
2017-12-06T11:15:38.225Z,7.63
2017-12-06T11:18:05.766Z,7.57
2017-12-06T11:20:33.348Z,8.30
2017-12-06T11:23:00.909Z,7.93
2017-12-06T11:25:28.491Z,7.60
2017-12-06T11:27:56.161Z,7.43
2017-12-06T11:30:23.765Z,8.83
2017-12-06T11:32:51.373Z,7.80
2017-12-06T11:35:19.022Z,6.67
2017-12-06T11:37:46.632Z,7.83
2017-12-06T11:40:14.291Z,7.90
2017-12-06T11:42:41.885Z,8.13
2017-12-06T11:45:09.557Z,7.67
2017-12-06T11:47:37.128Z,6.60
2017-12-06T11:50:04.705Z,6.17
2017-12-06T11:52:32.261Z,7.40
2017-12-06T11:54:59.920Z,7.47
2017-12-06T11:57:27.508Z,7.07
2017-12-06T11:59:55.104Z,7.30
2017-12-06T12:02:22.728Z,7.70
2017-12-06T12:04:50.359Z,7.10
2017-12-06T12:07:18.269Z,8.30
2017-12-06T12:09:45.931Z,8.67
2017-12-06T12:12:13.659Z,8.80
2017-12-06T12:14:41.268Z,8.20
2017-12-06T12:17:08.851Z,7.80
2017-12-06T12:19:36.557Z,8.87
2017-12-06T12:22:04.138Z,7.77
2017-12-06T12:24:31.733Z,7.33
2017-12-06T12:26:59.378Z,7.10
2017-12-06T12:29:27.094Z,6.80
2017-12-06T12:31:54.681Z,7.87
2017-12-06T12:34:22.275Z,7.90
2017-12-06T12:36:49.873Z,6.40
2017-12-06T12:39:17.450Z,7.47
2017-12-06T12:41:45.105Z,7.30
2017-12-06T12:44:12.705Z,7.67
2017-12-06T12:46:40.293Z,6.83
2017-12-06T12:49:07.869Z,7.30
2017-12-06T12:51:35.469Z,7.27
2017-12-06T12:54:03.062Z,6.97
2017-12-06T12:56:30.727Z,7.87
2017-12-06T12:58:58.326Z,8.07
2017-12-06T13:01:25.972Z,8.50
2017-12-06T13:03:53.529Z,8.17
2017-12-06T13:06:21.116Z,7.70
2017-12-06T13:08:48.683Z,6.53
2017-12-06T13:11:16.314Z,5.87
2017-12-06T13:13:43.877Z,6.17
2017-12-06T13:16:11.633Z,5.83
2017-12-06T13:18:39.343Z,6.83
2017-12-06T13:21:06.918Z,6.17
2017-12-06T13:23:34.561Z,5.87
2017-12-06T13:26:02.129Z,5.87
2017-12-06T13:28:29.725Z,7.73
2017-12-06T13:30:57.287Z,7.10
2017-12-06T13:33:24.862Z,6.27
2017-12-06T13:35:52.422Z,6.07
2017-12-06T13:38:19.999Z,5.90
2017-12-06T13:40:47.615Z,4.97
2017-12-06T13:43:15.246Z,5.13
2017-12-06T13:45:42.810Z,4.60
2017-12-06T13:48:10.397Z,5.03
2017-12-06T13:50:37.967Z,5.20
2017-12-06T13:53:05.564Z,5.23
2017-12-06T13:55:33.164Z,4.73
2017-12-06T13:58:00.810Z,4.80
2017-12-06T14:00:28.423Z,5.00
2017-12-06T14:02:56.347Z,5.60
2017-12-06T14:05:24.035Z,5.50
2017-12-06T14:07:51.626Z,5.83
2017-12-06T14:10:19.242Z,5.60
2017-12-06T14:12:46.857Z,6.00
2017-12-06T14:15:14.400Z,5.60
2017-12-06T14:17:42.051Z,5.60
2017-12-06T14:20:10.080Z,5.87
2017-12-06T14:22:37.645Z,5.73
2017-12-06T14:25:05.261Z,6.23
2017-12-06T14:27:32.856Z,6.07
2017-12-06T14:30:00.461Z,6.17
2017-12-06T14:32:28.119Z,6.77
2017-12-06T14:34:55.701Z,6.93
2017-12-06T14:37:23.285Z,6.67
2017-12-06T14:39:50.888Z,6.97
2017-12-06T14:42:18.447Z,6.43
2017-12-06T14:44:46.030Z,7.50
2017-12-06T14:47:13.618Z,6.50
2017-12-06T14:49:41.272Z,7.40
2017-12-06T14:52:08.955Z,6.90
2017-12-06T14:54:36.564Z,6.80
2017-12-06T14:57:04.136Z,7.10
2017-12-06T14:59:31.732Z,7.23
2017-12-06T15:01:59.312Z,6.30
2017-12-06T15:04:26.891Z,6.63
2017-12-06T15:06:54.471Z,6.73
2017-12-06T15:09:22.050Z,6.33
2017-12-06T15:11:49.630Z,7.20
2017-12-06T15:14:17.245Z,7.30
2017-12-06T15:16:44.982Z,7.10
2017-12-06T15:19:13.033Z,7.40
2017-12-06T15:21:40.667Z,7.80
2017-12-06T15:24:08.226Z,7.13
2017-12-06T15:26:35.828Z,6.23
2017-12-06T15:29:03.408Z,6.60
2017-12-06T15:31:31.026Z,7.50
2017-12-06T15:33:58.620Z,6.50
2017-12-06T15:36:26.238Z,7.37
2017-12-06T15:38:53.838Z,7.00
2017-12-06T15:41:21.630Z,8.17
2017-12-06T15:43:49.218Z,7.43
2017-12-06T15:46:16.845Z,7.70
2017-12-06T15:48:44.422Z,7.40
2017-12-06T15:51:12.049Z,6.97
2017-12-06T15:53:39.667Z,7.20
2017-12-06T15:56:07.412Z,7.70
2017-12-06T15:58:34.969Z,7.53
2017-12-06T16:01:02.569Z,8.83
2017-12-06T16:03:30.181Z,8.47
2017-12-06T16:05:57.780Z,8.33
2017-12-06T16:08:25.411Z,7.40
2017-12-06T16:10:53.016Z,7.20
2017-12-06T16:13:20.608Z,8.93
2017-12-06T16:15:48.275Z,8.30
2017-12-06T16:18:15.888Z,7.93
2017-12-06T16:20:43.522Z,8.27
2017-12-06T16:23:11.104Z,8.97
2017-12-06T16:25:38.723Z,7.77
2017-12-06T16:28:06.303Z,8.90
2017-12-06T16:30:33.884Z,8.07
2017-12-06T16:33:01.518Z,8.57
2017-12-06T16:35:40.802Z,7.70
2017-12-06T16:38:08.723Z,8.37
2017-12-06T16:40:36.351Z,8.27
2017-12-06T16:43:04.009Z,7.33
2017-12-06T16:45:31.662Z,7.70
2017-12-06T16:47:59.331Z,7.23
2017-12-06T16:50:26.965Z,8.00
2017-12-06T16:52:54.602Z,8.30
2017-12-06T16:55:22.180Z,7.97
2017-12-06T16:57:49.825Z,8.20
2017-12-06T17:00:17.405Z,8.47
2017-12-06T17:02:45.040Z,7.97
2017-12-06T17:05:12.631Z,8.07
2017-12-06T17:07:40.393Z,8.43
2017-12-06T17:10:07.984Z,7.50
2017-12-06T17:12:35.643Z,7.83
2017-12-06T17:15:03.217Z,9.03
2017-12-06T17:17:30.925Z,8.77
2017-12-06T17:19:58.571Z,8.87
2017-12-06T17:22:26.164Z,8.40
2017-12-06T17:24:53.778Z,8.63
2017-12-06T17:27:21.369Z,8.13
2017-12-06T17:30:00.670Z,8.10
2017-12-06T17:32:28.271Z,9.07
2017-12-06T17:34:55.920Z,9.27
2017-12-06T17:37:23.554Z,7.83
2017-12-06T17:39:51.132Z,8.60
2017-12-06T17:42:18.756Z,8.80
2017-12-06T17:44:46.363Z,8.27
2017-12-06T17:47:13.957Z,9.20
2017-12-06T17:49:41.600Z,9.33
2017-12-06T17:52:09.163Z,9.70
2017-12-06T17:54:36.804Z,10.43
2017-12-06T17:57:04.423Z,10.40
2017-12-06T17:59:32.026Z,9.47
2017-12-06T18:01:59.612Z,10.43
2017-12-06T18:04:27.286Z,9.43
2017-12-06T18:06:54.870Z,9.93
2017-12-06T18:09:22.507Z,9.50
2017-12-06T18:11:50.446Z,9.10
2017-12-06T18:14:18.085Z,10.20
2017-12-06T18:16:45.696Z,9.80
2017-12-06T18:19:13.318Z,8.80
2017-12-06T18:21:40.936Z,11.40
2017-12-06T18:24:08.740Z,12.27
2017-12-06T18:26:36.334Z,12.53
2017-12-06T18:29:03.938Z,12.00
2017-12-06T18:31:31.635Z,12.27
2017-12-06T18:33:59.250Z,13.47
2017-12-06T18:36:26.984Z,11.20
2017-12-06T18:38:54.595Z,12.97
2017-12-06T18:41:22.339Z,12.70
2017-12-06T18:43:49.980Z,13.10
2017-12-06T18:46:17.647Z,13.13
2017-12-06T18:48:45.318Z,14.67
2017-12-06T18:51:13.046Z,13.00
2017-12-06T18:53:40.677Z,13.77
2017-12-06T18:56:08.299Z,12.83
2017-12-06T18:58:35.947Z,13.10
2017-12-06T19:01:03.665Z,14.37
2017-12-06T19:03:31.310Z,13.50
2017-12-06T19:05:59.917Z,12.40
2017-12-06T19:08:27.608Z,13.17
2017-12-06T19:10:55.342Z,12.50
2017-12-06T19:13:23.062Z,12.53
2017-12-06T19:15:50.769Z,11.70
2017-12-06T19:18:18.465Z,11.77
2017-12-06T19:20:46.189Z,11.93
2017-12-06T19:23:15.275Z,12.00
2017-12-06T19:25:43.086Z,13.20
2017-12-06T19:28:10.861Z,12.70
2017-12-06T19:30:38.650Z,13.53
2017-12-06T19:33:06.698Z,12.50
2017-12-06T19:35:34.604Z,12.33
2017-12-06T19:38:02.490Z,12.60
2017-12-06T19:40:30.304Z,12.67
2017-12-06T19:42:58.169Z,13.80
2017-12-06T19:45:26.153Z,12.70
2017-12-06T19:47:54.599Z,12.63
2017-12-06T19:50:22.374Z,12.97
2017-12-06T19:52:50.302Z,14.00
2017-12-06T19:55:18.214Z,15.00
2017-12-06T19:57:45.984Z,13.43
2017-12-06T20:00:13.763Z,13.10
2017-12-06T20:02:41.546Z,13.77
2017-12-06T20:05:09.437Z,12.50
2017-12-06T20:07:37.307Z,14.27
2017-12-06T20:10:05.085Z,12.20
2017-12-06T20:12:34.538Z,13.07
2017-12-06T20:15:02.343Z,12.90
2017-12-06T20:17:30.137Z,13.00
2017-12-06T20:19:57.932Z,12.93
2017-12-06T20:22:25.705Z,12.20
2017-12-06T20:24:53.598Z,12.30
2017-12-06T20:27:22.330Z,12.70
2017-12-06T20:30:00.287Z,12.53
2017-12-06T20:32:30.050Z,12.80
2017-12-06T20:34:57.971Z,14.77
2017-12-06T20:37:28.001Z,14.03
2017-12-06T20:39:56.958Z,14.37
2017-12-06T20:42:26.607Z,15.00
2017-12-06T20:44:54.475Z,13.77
2017-12-06T20:47:23.017Z,13.47
2017-12-06T20:49:51.590Z,15.77
2017-12-06T20:52:19.349Z,14.07
2017-12-06T20:54:47.133Z,14.53
2017-12-06T20:57:14.916Z,14.50
2017-12-06T20:59:42.781Z,12.93
2017-12-06T21:02:10.540Z,14.00
2017-12-06T21:04:38.311Z,13.17
2017-12-06T21:07:06.033Z,13.13
2017-12-06T21:09:33.791Z,12.60
2017-12-06T21:12:01.521Z,13.00
2017-12-06T21:14:29.233Z,12.77
2017-12-06T21:16:56.973Z,12.90
2017-12-06T21:19:25.731Z,13.87
2017-12-06T21:21:53.459Z,12.70
2017-12-06T21:24:21.158Z,13.53
2017-12-06T21:26:49.160Z,13.17
2017-12-06T21:29:16.876Z,14.40
2017-12-06T21:31:44.536Z,13.97
2017-12-06T21:34:12.235Z,13.37
2017-12-06T21:36:39.942Z,13.33
2017-12-06T21:39:07.598Z,12.60
2017-12-06T21:41:35.304Z,14.13
2017-12-06T21:44:02.969Z,12.67
2017-12-06T21:46:30.588Z,12.87
2017-12-06T21:48:58.286Z,13.03
2017-12-06T21:51:25.940Z,15.23
2017-12-06T21:53:53.518Z,15.10
2017-12-06T21:56:21.171Z,16.27
2017-12-06T21:58:48.778Z,13.70
2017-12-06T22:01:16.436Z,13.50
2017-12-06T22:03:44.028Z,12.87
2017-12-06T22:06:11.681Z,13.10
2017-12-06T22:08:39.298Z,12.33
2017-12-06T22:11:06.941Z,13.50
2017-12-06T22:13:34.592Z,13.30
2017-12-06T22:16:02.217Z,13.20
2017-12-06T22:18:29.839Z,14.37
2017-12-06T22:20:57.450Z,13.00
2017-12-06T22:23:25.055Z,14.10
2017-12-06T22:25:52.669Z,14.17
2017-12-06T22:28:20.312Z,14.00
2017-12-06T22:30:47.985Z,14.20
2017-12-06T22:33:15.563Z,14.00
2017-12-06T22:35:43.279Z,13.60
2017-12-06T22:38:10.868Z,13.93
2017-12-06T22:40:38.447Z,13.20
2017-12-06T22:43:06.087Z,13.03
2017-12-06T22:45:33.730Z,13.53
2017-12-06T22:48:01.346Z,14.03
2017-12-06T22:50:28.975Z,14.70
2017-12-06T22:52:56.598Z,15.20
2017-12-06T22:55:25.099Z,14.27
2017-12-06T22:57:52.709Z,13.70
2017-12-06T23:00:20.291Z,14.03
2017-12-06T23:02:47.894Z,14.50
2017-12-06T23:05:15.580Z,15.10
2017-12-06T23:07:43.206Z,14.80
2017-12-06T23:10:10.827Z,14.13
2017-12-06T23:12:38.498Z,14.13
2017-12-06T23:15:06.088Z,13.80
2017-12-06T23:17:33.735Z,14.27
2017-12-06T23:20:01.440Z,14.30
2017-12-06T23:22:29.078Z,13.40
2017-12-06T23:24:56.686Z,14.97
2017-12-06T23:27:24.288Z,14.03
2017-12-06T23:29:52.052Z,13.93
2017-12-06T23:32:19.697Z,12.80
2017-12-06T23:34:47.289Z,13.50
2017-12-06T23:37:14.938Z,13.93
2017-12-06T23:39:42.511Z,13.73
2017-12-06T23:42:10.089Z,13.50
2017-12-06T23:44:37.720Z,13.13
2017-12-06T23:47:05.327Z,11.53
2017-12-06T23:49:32.953Z,13.10
2017-12-06T23:52:00.591Z,12.03
2017-12-06T23:54:28.199Z,13.37
2017-12-06T23:56:55.846Z,13.20
2017-12-06T23:59:23.490Z,11.57
